N628WK KHHR-KAVX
Flight info
| Callsign | N628WK |
|---|---|
| Flight time | N/A |
| Altitude | 5000 |
| Route | SXC |
| Aircraft | EVOT/L-VGD/C |
Departure
| Time | 2026-05-09 02:54 |
|---|---|
| Airport | Jack Northrop Field Hawthorne Municipal Airport (KHHR) |
Arrival
| Time | N/A |
|---|---|
| Airport | Catalina Airport (KAVX) |
| Time | Latitude | Longitude | Altitude | Speed | Heading |
|---|---|---|---|---|---|
| 2026-05-09 02:50 | 33.92254 | -118.32834 | 65 ft | 0 kts | 358° |
| 2026-05-09 02:52 | 33.92255 | -118.32834 | 65 ft | 2 kts | 357° |
| 2026-05-09 02:52 | 33.92272 | -118.32814 | 65 ft | 12 kts | 78° |
| 2026-05-09 02:52 | 33.92274 | -118.32779 | 65 ft | 2 kts | 84° |
| 2026-05-09 02:53 | 33.92277 | -118.32738 | 65 ft | 4 kts | 86° |
| 2026-05-09 02:53 | 33.92296 | -118.32718 | 65 ft | 5 kts | 355° |
| 2026-05-09 02:53 | 33.92316 | -118.32788 | 65 ft | 16 kts | 263° |
| 2026-05-09 02:53 | 33.92298 | -118.33189 | 66 ft | 98 kts | 265° |
| 2026-05-09 02:54 | 33.92268 | -118.34222 | 372 ft | 147 kts | 266° |
| 2026-05-09 02:54 | 33.91789 | -118.35420 | 1022 ft | 181 kts | 225° |
| 2026-05-09 02:54 | 33.90770 | -118.36399 | 1667 ft | 207 kts | 216° |
| 2026-05-09 02:54 | 33.89551 | -118.37550 | 2060 ft | 229 kts | 217° |
| 2026-05-09 02:55 | 33.88244 | -118.38714 | 2515 ft | 240 kts | 217° |
| 2026-05-09 02:55 | 33.86865 | -118.39913 | 2944 ft | 249 kts | 217° |
| 2026-05-09 02:55 | 33.85447 | -118.41139 | 3371 ft | 254 kts | 217° |
| 2026-05-09 02:55 | 33.83791 | -118.41879 | 3774 ft | 260 kts | 184° |
| 2026-05-09 02:56 | 33.81974 | -118.41914 | 4201 ft | 262 kts | 180° |
| 2026-05-09 02:56 | 33.80156 | -118.41917 | 4624 ft | 257 kts | 180° |
| 2026-05-09 02:56 | 33.78367 | -118.41922 | 4917 ft | 256 kts | 180° |
| 2026-05-09 02:56 | 33.76578 | -118.41926 | 4967 ft | 257 kts | 181° |
| 2026-05-09 02:57 | 33.74784 | -118.41930 | 4975 ft | 257 kts | 181° |
| 2026-05-09 02:57 | 33.72993 | -118.41933 | 4974 ft | 257 kts | 180° |
| 2026-05-09 02:57 | 33.71202 | -118.41936 | 4972 ft | 258 kts | 181° |
| 2026-05-09 02:57 | 33.69409 | -118.41939 | 4974 ft | 258 kts | 181° |
| 2026-05-09 02:58 | 33.67617 | -118.41942 | 4976 ft | 258 kts | 181° |
| 2026-05-09 02:58 | 33.65817 | -118.41946 | 4977 ft | 258 kts | 181° |
| 2026-05-09 02:58 | 33.63995 | -118.41949 | 4977 ft | 259 kts | 181° |
| 2026-05-09 02:58 | 33.62194 | -118.41952 | 4980 ft | 259 kts | 181° |
| 2026-05-09 02:59 | 33.60406 | -118.41956 | 4976 ft | 259 kts | 181° |
| 2026-05-09 02:59 | 33.58607 | -118.41959 | 4834 ft | 250 kts | 181° |
| 2026-05-09 02:59 | 33.56950 | -118.41963 | 4484 ft | 231 kts | 182° |
| 2026-05-09 02:59 | 33.55379 | -118.41966 | 4134 ft | 217 kts | 182° |
| 2026-05-09 03:00 | 33.53909 | -118.41969 | 3782 ft | 208 kts | 182° |
| 2026-05-09 03:00 | 33.52488 | -118.41973 | 3470 ft | 199 kts | 183° |
| 2026-05-09 03:00 | 33.51207 | -118.42248 | 3434 ft | 175 kts | 198° |
| 2026-05-09 03:00 | 33.50023 | -118.42467 | 3264 ft | 165 kts | 192° |
| 2026-05-09 03:01 | 33.48920 | -118.42655 | 3228 ft | 158 kts | 187° |
| 2026-05-09 03:01 | 33.47738 | -118.42727 | 3359 ft | 183 kts | 185° |
| 2026-05-09 03:01 | 33.46368 | -118.42777 | 3387 ft | 207 kts | 180° |
| 2026-05-09 03:01 | 33.44953 | -118.42705 | 3387 ft | 198 kts | 178° |
| 2026-05-09 03:02 | 33.43592 | -118.42592 | 3385 ft | 190 kts | 177° |
| 2026-05-09 03:02 | 33.42294 | -118.42469 | 3386 ft | 184 kts | 177° |